Time;durP1;ratioP1;P1;durP2;ratioP2;P2;SDS_P1;SDS_P2;PMS_P1;PMS_P2;Temp;Humidity;BMP_temperature;BMP_pressure;BME280_temperature;BME280_humidity;BME280_pressure;Samples;Min_cycle;Max_cycle;Signal;HPM_P1;HPM_P2
2022/12/11 00:02:19;;;;;;;40.35;13.85;;;-0.10;99.90;;;;;;6155142;23;20076;-87
2022/12/11 00:04:45;;;;;;;39.25;13.85;;;-0.10;99.90;;;;;;6179803;23;20084;-87
2022/12/11 00:07:11;;;;;;;40.78;14.05;;;-0.10;99.90;;;;;;6154585;23;20059;-86
2022/12/11 00:09:37;;;;;;;34.05;12.32;;;-0.10;99.90;;;;;;6155101;23;20485;-87
2022/12/11 00:12:04;;;;;;;36.80;13.32;;;-0.10;99.90;;;;;;6178290;23;20435;-86
2022/12/11 00:14:30;;;;;;;37.03;13.73;;;-0.10;99.90;;;;;;6155190;23;20017;-87
2022/12/11 00:16:56;;;;;;;38.78;13.57;;;0.00;99.90;;;;;;6152988;23;20013;-87
2022/12/11 00:19:22;;;;;;;38.10;14.50;;;0.00;99.90;;;;;;6178801;23;20013;-87
2022/12/11 00:21:47;;;;;;;39.35;13.18;;;0.00;99.90;;;;;;6154473;23;20091;-86
2022/12/11 00:24:13;;;;;;;38.67;12.68;;;0.00;99.90;;;;;;6177844;23;20026;-87
2022/12/11 00:26:39;;;;;;;40.50;14.40;;;0.00;99.90;;;;;;6154506;23;20435;-87
2022/12/11 00:29:07;;;;;;;38.40;13.85;;;0.00;99.90;;;;;;6153406;23;20032;-86
2022/12/11 00:31:32;;;;;;;41.35;14.05;;;0.00;99.90;;;;;;6154930;23;20013;-87
2022/12/11 00:34:00;;;;;;;34.75;13.27;;;0.10;99.90;;;;;;6153614;23;20340;-87
2022/12/11 00:36:26;;;;;;;37.95;12.10;;;0.00;99.90;;;;;;6155199;23;20019;-86
2022/12/11 00:38:52;;;;;;;45.55;15.52;;;0.10;99.90;;;;;;6154384;23;20013;-86
2022/12/11 00:41:18;;;;;;;41.20;13.07;;;0.10;99.90;;;;;;6180933;23;20009;-86
2022/12/11 00:43:44;;;;;;;42.28;14.65;;;0.10;99.90;;;;;;6179498;23;20470;-87
2022/12/11 00:46:11;;;;;;;33.40;12.35;;;0.10;99.90;;;;;;6178899;23;20331;-87
2022/12/11 00:48:36;;;;;;;36.85;13.80;;;0.10;99.90;;;;;;6178638;23;20070;-87
2022/12/11 00:51:02;;;;;;;42.78;15.05;;;0.10;99.90;;;;;;6179773;23;20009;-87
2022/12/11 00:53:28;;;;;;;43.20;14.70;;;0.10;99.90;;;;;;6154908;23;20051;-87
2022/12/11 00:55:54;;;;;;;40.97;14.13;;;0.10;99.90;;;;;;6178155;23;20685;-87
2022/12/11 00:58:20;;;;;;;39.30;13.88;;;0.10;99.90;;;;;;6179685;23;20064;-87
2022/12/11 01:00:47;;;;;;;42.08;13.55;;;0.10;99.90;;;;;;6153767;23;20017;-87
2022/12/11 01:03:13;;;;;;;35.28;11.30;;;0.20;99.90;;;;;;6153537;23;20013;-87
2022/12/11 01:05:39;;;;;;;38.95;12.73;;;0.20;99.90;;;;;;6154761;23;20017;-86
2022/12/11 01:08:05;;;;;;;36.00;13.50;;;0.20;99.90;;;;;;6180632;23;20386;-86
2022/12/11 01:10:31;;;;;;;36.35;13.40;;;0.20;99.90;;;;;;6178614;23;20028;-87
2022/12/11 01:13:05;;;;;;;39.40;13.85;;;0.20;99.90;;;;;;6152440;23;20017;-87
2022/12/11 01:15:33;;;;;;;39.28;13.68;;;0.20;99.90;;;;;;6180062;23;20084;-87
2022/12/11 01:17:59;;;;;;;35.42;14.77;;;0.20;99.90;;;;;;6153460;23;20017;-87
2022/12/11 01:20:26;;;;;;;36.00;13.93;;;0.20;99.90;;;;;;6153763;23;20017;-86
2022/12/11 01:22:57;;;;;;;36.20;12.75;;;0.20;99.90;;;;;;6153317;23;20019;-87
2022/12/11 01:25:23;;;;;;;34.97;12.53;;;0.20;99.90;;;;;;6180297;23;20133;-87
2022/12/11 01:27:50;;;;;;;38.10;13.20;;;0.20;99.90;;;;;;6153696;23;20048;-87
2022/12/11 01:30:17;;;;;;;34.78;12.27;;;0.20;99.90;;;;;;6177678;23;20084;-87
2022/12/11 01:32:43;;;;;;;36.47;13.38;;;0.30;99.90;;;;;;6178915;23;20017;-87
2022/12/11 01:35:10;;;;;;;38.30;13.25;;;0.30;99.90;;;;;;6153568;23;20028;-87
2022/12/11 01:37:36;;;;;;;42.50;13.52;;;0.30;99.90;;;;;;6154206;23;20021;-86
2022/12/11 01:40:02;;;;;;;32.10;12.50;;;0.30;99.90;;;;;;6153257;23;20017;-87
2022/12/11 01:42:28;;;;;;;38.03;12.45;;;0.30;99.90;;;;;;6179744;23;20096;-87
2022/12/11 01:45:25;;;;;;;43.13;14.73;;;0.30;99.90;;;;;;6152999;23;20061;-87
2022/12/11 01:48:01;;;;;;;44.03;14.02;;;0.30;99.90;;;;;;6180535;23;20052;-87
2022/12/11 01:50:30;;;;;;;37.97;13.55;;;0.30;99.90;;;;;;6153862;23;20013;-87
2022/12/11 01:52:56;;;;;;;35.05;12.55;;;0.30;99.90;;;;;;6177893;23;20443;-87
2022/12/11 01:55:22;;;;;;;36.03;13.70;;;0.30;99.90;;;;;;6180448;23;20094;-87
2022/12/11 01:57:51;;;;;;;43.50;14.15;;;0.30;99.90;;;;;;6180407;23;20028;-87
2022/12/11 02:00:18;;;;;;;39.08;12.52;;;0.20;99.90;;;;;;6152850;23;20402;-86
2022/12/11 02:02:44;;;;;;;43.67;13.57;;;0.30;99.90;;;;;;6179026;23;20069;-87
2022/12/11 02:05:09;;;;;;;36.78;13.20;;;0.40;99.90;;;;;;6153901;23;20076;-87
2022/12/11 02:07:39;;;;;;;38.22;13.05;;;0.30;99.90;;;;;;6152866;23;20021;-87
2022/12/11 02:10:06;;;;;;;44.85;14.80;;;0.30;99.90;;;;;;6153068;23;20052;-87
2022/12/11 02:12:59;;;;;;;42.60;13.35;;;0.40;99.90;;;;;;6153922;23;20359;-88
2022/12/11 02:15:47;;;;;;;37.28;13.38;;;0.30;99.90;;;;;;6180827;23;20052;-87
2022/12/11 02:18:48;;;;;;;45.35;13.65;;;0.30;99.90;;;;;;6180989;23;20013;-87
2022/12/11 02:21:40;;;;;;;41.88;13.05;;;0.30;99.90;;;;;;6091689;23;20100;-87
2022/12/11 02:24:27;;;;;;;40.95;14.18;;;0.40;99.90;;;;;;6151589;23;20043;-88
2022/12/11 02:27:31;;;;;;;43.40;12.95;;;0.40;99.90;;;;;;6154050;23;20074;-88
2022/12/11 02:29:56;;;;;;;40.50;13.60;;;0.40;99.90;;;;;;6178615;23;20505;-88
2022/12/11 02:32:28;;;;;;;40.28;13.13;;;0.40;99.90;;;;;;6154652;23;20048;-88
2022/12/11 02:35:11;;;;;;;37.67;12.13;;;0.40;99.90;;;;;;6153834;23;20009;-87
2022/12/11 02:37:40;;;;;;;34.78;11.57;;;0.40;99.90;;;;;;6180078;23;20084;-88
2022/12/11 02:40:10;;;;;;;38.63;13.02;;;0.40;99.90;;;;;;6153935;23;20009;-88
2022/12/11 02:42:39;;;;;;;36.88;12.32;;;0.40;99.90;;;;;;6130206;23;20025;-88
2022/12/11 02:45:06;;;;;;;39.70;13.35;;;0.40;99.90;;;;;;6178577;23;20020;-88
2022/12/11 02:47:32;;;;;;;38.22;12.30;;;0.40;99.90;;;;;;6180596;23;20013;-88
2022/12/11 02:50:02;;;;;;;31.65;11.32;;;0.40;99.90;;;;;;6179925;23;20103;-88
2022/12/11 02:52:31;;;;;;;36.38;12.98;;;0.50;99.90;;;;;;6153466;23;20024;-88
2022/12/11 02:54:59;;;;;;;28.50;10.43;;;0.50;99.90;;;;;;6179402;23;20024;-88
2022/12/11 02:57:34;;;;;;;32.25;10.75;;;0.50;99.90;;;;;;6154282;23;20044;-87
2022/12/11 03:00:00;;;;;;;37.22;13.00;;;0.50;99.90;;;;;;6178952;23;20071;-88
2022/12/11 03:02:26;;;;;;;35.97;12.43;;;0.50;99.90;;;;;;6178787;23;20025;-87
2022/12/11 03:04:52;;;;;;;42.08;11.95;;;0.50;99.90;;;;;;6153166;23;20502;-88
2022/12/11 03:07:23;;;;;;;38.20;13.30;;;0.50;99.90;;;;;;6153152;23;20013;-88
2022/12/11 03:09:51;;;;;;;35.33;12.52;;;0.60;99.90;;;;;;6182661;23;20386;-87
2022/12/11 03:12:21;;;;;;;29.27;10.82;;;0.50;99.90;;;;;;6156089;23;20043;-87
2022/12/11 03:14:47;;;;;;;34.85;12.65;;;0.50;99.90;;;;;;6156291;23;20020;-88
2022/12/11 03:17:18;;;;;;;36.05;14.32;;;0.50;99.90;;;;;;6183493;23;20017;-87
2022/12/11 03:20:00;;;;;;;35.55;12.45;;;0.50;99.90;;;;;;6183091;23;20016;-87
2022/12/11 03:22:46;;;;;;;36.42;12.57;;;0.50;99.90;;;;;;6156817;23;20017;-88
2022/12/11 03:25:19;;;;;;;34.50;12.73;;;0.50;99.90;;;;;;6182921;23;20020;-87
2022/12/11 03:27:58;;;;;;;35.15;12.48;;;0.50;99.90;;;;;;6180071;23;20017;-87
2022/12/11 03:30:27;;;;;;;44.45;13.98;;;0.60;99.90;;;;;;6181733;23;20025;-87
2022/12/11 03:32:59;;;;;;;40.50;13.07;;;0.60;99.90;;;;;;6155871;23;20089;-87
2022/12/11 03:35:27;;;;;;;39.85;14.43;;;0.60;99.90;;;;;;6131829;23;20040;-88
2022/12/11 03:37:56;;;;;;;33.80;11.63;;;0.60;99.90;;;;;;6181568;23;20048;-88
2022/12/11 03:40:24;;;;;;;40.45;14.30;;;0.60;99.90;;;;;;6159111;23;20009;-88
2022/12/11 03:42:52;;;;;;;35.92;14.20;;;0.60;99.90;;;;;;6195472;23;20017;-87
2022/12/11 03:45:21;;;;;;;38.75;13.65;;;0.60;99.90;;;;;;6199107;23;20036;-88
2022/12/11 03:47:48;;;;;;;36.15;12.73;;;0.60;99.90;;;;;;6150446;23;20017;-86
2022/12/11 03:50:17;;;;;;;35.63;12.63;;;0.60;99.90;;;;;;6147330;23;20021;-87
2022/12/11 03:52:45;;;;;;;37.20;12.02;;;0.50;99.90;;;;;;6201687;23;20024;-88
2022/12/11 03:55:13;;;;;;;33.95;11.32;;;0.60;99.90;;;;;;6208732;23;20031;-87
2022/12/11 03:57:39;;;;;;;41.38;13.63;;;0.60;99.90;;;;;;6160270;23;20007;-88
2022/12/11 04:00:08;;;;;;;45.22;14.55;;;0.60;99.90;;;;;;6196346;23;20021;-88
2022/12/11 04:02:33;;;;;;;36.72;13.27;;;0.60;99.90;;;;;;6188783;23;20017;-88
2022/12/11 04:04:59;;;;;;;38.85;13.52;;;0.70;99.90;;;;;;6188067;23;20016;-88
2022/12/11 04:07:25;;;;;;;37.03;12.27;;;0.60;99.90;;;;;;6158506;23;20084;-88
2022/12/11 04:09:51;;;;;;;39.90;13.75;;;0.60;99.90;;;;;;6156836;23;20017;-88
2022/12/11 04:12:16;;;;;;;40.10;13.35;;;0.60;99.90;;;;;;6181629;23;20017;-87
2022/12/11 04:15:00;;;;;;;46.53;14.32;;;0.60;99.90;;;;;;6182251;23;20430;-88
2022/12/11 04:25:44;;;;;;;43.30;14.93;;;0.60;99.90;;;;;;6155213;23;20021;-88
2022/12/11 04:28:10;;;;;;;38.85;13.48;;;0.60;99.90;;;;;;6180237;23;20032;-89
2022/12/11 04:30:35;;;;;;;40.50;14.30;;;0.60;99.90;;;;;;6156128;23;20025;-90
2022/12/11 04:33:01;;;;;;;40.00;14.48;;;0.60;99.90;;;;;;6154162;23;20358;-90
2022/12/11 04:35:27;;;;;;;45.38;13.63;;;0.60;99.90;;;;;;6155209;23;20201;-89
2022/12/11 04:37:52;;;;;;;41.10;14.38;;;0.60;99.90;;;;;;6154666;23;20017;-88
2022/12/11 04:40:19;;;;;;;41.22;13.80;;;0.60;99.90;;;;;;6180668;23;20009;-90
2022/12/11 04:42:45;;;;;;;42.00;13.60;;;0.60;99.90;;;;;;6180765;23;20044;-90
2022/12/11 04:45:11;;;;;;;36.40;12.35;;;0.70;99.90;;;;;;6155883;23;20028;-89
2022/12/11 04:47:38;;;;;;;40.55;14.20;;;0.60;99.90;;;;;;6180784;23;20017;-90
2022/12/11 04:50:06;;;;;;;37.95;14.05;;;0.70;99.90;;;;;;6179903;23;20025;-88
2022/12/11 04:52:32;;;;;;;36.85;11.90;;;0.60;99.90;;;;;;6180937;23;20017;-89
2022/12/11 04:54:57;;;;;;;38.97;14.90;;;0.70;99.90;;;;;;6154753;23;20114;-88
2022/12/11 04:57:23;;;;;;;37.58;11.90;;;0.70;99.90;;;;;;6154735;23;20023;-89
2022/12/11 04:59:49;;;;;;;35.05;12.95;;;0.70;99.90;;;;;;6155163;23;20017;-89
2022/12/11 05:02:15;;;;;;;36.65;13.15;;;0.60;99.90;;;;;;6154503;23;20028;-90
2022/12/11 05:04:41;;;;;;;41.60;13.45;;;0.70;99.90;;;;;;6156205;23;20095;-89
2022/12/11 05:07:08;;;;;;;42.55;13.90;;;0.60;99.90;;;;;;6155860;23;20041;-90
2022/12/11 05:09:34;;;;;;;39.38;12.65;;;0.70;99.90;;;;;;6156094;23;20176;-89
2022/12/11 05:12:00;;;;;;;35.38;11.75;;;0.70;99.90;;;;;;6155609;23;20040;-90
2022/12/11 05:14:27;;;;;;;39.03;12.85;;;0.70;99.90;;;;;;6131188;23;20017;-88
2022/12/11 05:16:52;;;;;;;43.35;14.93;;;0.70;99.90;;;;;;6155168;23;20017;-89
2022/12/11 05:19:18;;;;;;;32.67;11.70;;;0.70;99.90;;;;;;6182166;23;20091;-89
2022/12/11 05:21:44;;;;;;;38.20;14.23;;;0.70;99.90;;;;;;6156231;23;20100;-88
2022/12/11 05:24:09;;;;;;;40.72;13.38;;;0.70;99.90;;;;;;6155765;23;20024;-88
2022/12/11 05:26:35;;;;;;;36.33;11.68;;;0.70;99.90;;;;;;6131015;23;20013;-90
2022/12/11 05:29:01;;;;;;;37.95;11.70;;;0.60;99.90;;;;;;6179362;23;20096;-89
2022/12/11 05:31:27;;;;;;;41.45;13.10;;;0.70;99.90;;;;;;6182055;23;20016;-89
2022/12/11 05:33:53;;;;;;;35.13;12.00;;;0.70;99.90;;;;;;6155272;23;20016;-90
2022/12/11 05:36:23;;;;;;;38.85;13.25;;;0.70;99.90;;;;;;6156184;23;20092;-89
2022/12/11 05:38:49;;;;;;;33.35;11.00;;;0.70;99.90;;;;;;6180758;23;20016;-89
2022/12/11 05:41:18;;;;;;;40.15;13.05;;;0.70;99.90;;;;;;6182222;23;20028;-90
2022/12/11 05:43:44;;;;;;;36.38;12.50;;;0.80;99.90;;;;;;6191430;23;20032;-88
2022/12/11 05:46:29;;;;;;;43.08;11.52;;;0.70;99.90;;;;;;6160678;23;20017;-90
2022/12/11 05:49:00;;;;;;;31.27;10.40;;;0.70;99.90;;;;;;6182241;23;20013;-90
2022/12/11 05:51:27;;;;;;;29.92;11.07;;;0.70;99.90;;;;;;6180241;23;20021;-89
2022/12/11 05:53:55;;;;;;;37.17;11.63;;;0.70;99.90;;;;;;6179714;23;20099;-90
2022/12/11 05:56:26;;;;;;;31.17;11.38;;;0.80;99.90;;;;;;6155761;23;20343;-90
2022/12/11 05:58:53;;;;;;;36.80;12.32;;;0.70;99.90;;;;;;6129900;23;20024;-89
2022/12/11 06:01:34;;;;;;;36.13;12.20;;;0.70;99.90;;;;;;6155525;23;20339;-90
2022/12/11 06:04:01;;;;;;;38.03;12.20;;;0.70;99.90;;;;;;6180086;23;20070;-90
2022/12/11 06:06:27;;;;;;;33.35;12.00;;;0.80;99.90;;;;;;6156211;23;20438;-90
2022/12/11 06:08:54;;;;;;;35.45;13.10;;;0.80;99.90;;;;;;6155282;23;20071;-90
2022/12/11 06:11:21;;;;;;;44.33;13.00;;;0.70;99.90;;;;;;6155170;23;20087;-90
2022/12/11 06:13:47;;;;;;;36.70;14.55;;;0.80;99.90;;;;;;6181936;23;20025;-90
2022/12/11 06:16:13;;;;;;;40.72;11.98;;;0.70;99.90;;;;;;6130620;23;20028;-91
2022/12/11 06:18:41;;;;;;;35.33;11.32;;;0.80;99.90;;;;;;6156181;23;20051;-90
2022/12/11 06:21:21;;;;;;;32.33;11.45;;;0.70;99.90;;;;;;6180246;23;20112;-90
2022/12/11 06:23:49;;;;;;;33.00;11.40;;;0.70;99.90;;;;;;6182379;23;20017;-90
2022/12/11 06:26:15;;;;;;;32.40;10.80;;;0.80;99.90;;;;;;6156396;23;20065;-91
2022/12/11 06:28:41;;;;;;;32.70;10.38;;;0.80;99.90;;;;;;6155744;23;20012;-90
2022/12/11 06:31:07;;;;;;;38.67;12.88;;;0.80;99.90;;;;;;6180915;23;20036;-89
2022/12/11 06:33:33;;;;;;;37.97;12.55;;;0.80;99.90;;;;;;6183902;23;20303;-91
2022/12/11 06:36:08;;;;;;;35.70;12.05;;;0.80;99.90;;;;;;6157733;23;20021;-90
2022/12/11 06:38:35;;;;;;;34.47;12.48;;;0.80;99.90;;;;;;6163167;23;20020;-87
2022/12/11 06:41:03;;;;;;;34.78;12.73;;;0.80;99.90;;;;;;6185521;23;20021;-88
2022/12/11 06:43:30;;;;;;;37.22;12.63;;;0.80;99.90;;;;;;6169346;23;20001;-92
2022/12/11 06:45:56;;;;;;;42.83;14.25;;;0.80;99.90;;;;;;6181186;23;20048;-90
2022/12/11 06:48:25;;;;;;;42.85;14.25;;;0.80;99.90;;;;;;6156130;23;20012;-92
2022/12/11 06:50:51;;;;;;;37.33;12.88;;;0.80;99.90;;;;;;6206853;23;20009;-91
2022/12/11 06:53:16;;;;;;;32.70;11.75;;;0.80;99.90;;;;;;6200361;23;20052;-91
2022/12/11 06:55:42;;;;;;;41.05;12.38;;;0.80;99.90;;;;;;6197031;23;20020;-94
2022/12/11 06:58:09;;;;;;;35.28;12.23;;;0.90;99.90;;;;;;6178582;23;20020;-92
2022/12/11 07:00:36;;;;;;;36.65;14.02;;;0.80;99.90;;;;;;6179919;23;20009;-93
2022/12/11 07:03:02;;;;;;;41.45;13.65;;;0.80;99.90;;;;;;6198514;23;20065;-93
2022/12/11 07:05:30;;;;;;;35.92;13.30;;;0.80;99.90;;;;;;6172738;23;20461;-90
2022/12/11 07:07:56;;;;;;;32.50;11.65;;;0.80;99.90;;;;;;6199504;23;20039;-90
2022/12/11 07:10:23;;;;;;;36.13;12.27;;;0.80;99.90;;;;;;6199218;23;20060;-88
2022/12/11 07:12:51;;;;;;;39.58;12.45;;;0.80;99.90;;;;;;6197694;23;20116;-89
2022/12/11 07:15:16;;;;;;;37.63;12.15;;;0.80;99.90;;;;;;6169206;23;20021;-89
2022/12/11 07:17:42;;;;;;;38.50;13.40;;;0.80;99.90;;;;;;6159356;23;20020;-89
2022/12/11 07:20:08;;;;;;;31.90;11.05;;;0.90;99.90;;;;;;6154416;23;20349;-87
2022/12/11 07:22:34;;;;;;;34.92;11.00;;;0.80;99.90;;;;;;6156640;23;20320;-87
2022/12/11 07:25:00;;;;;;;34.38;12.45;;;0.80;99.90;;;;;;6128764;23;20083;-87
2022/12/11 07:27:26;;;;;;;32.80;11.60;;;0.80;99.90;;;;;;6152965;23;20013;-86
2022/12/11 07:29:51;;;;;;;36.55;12.80;;;0.80;99.90;;;;;;6152695;23;20025;-85
2022/12/11 07:32:17;;;;;;;37.30;13.07;;;0.80;99.90;;;;;;6154584;23;20028;-87
2022/12/11 07:34:43;;;;;;;36.55;12.77;;;0.80;99.90;;;;;;6180323;23;20012;-85
2022/12/11 07:37:08;;;;;;;34.28;11.32;;;0.80;99.90;;;;;;6178886;23;20016;-89
2022/12/11 07:39:34;;;;;;;39.70;13.38;;;0.90;99.90;;;;;;6160497;23;20009;-90
2022/12/11 07:42:00;;;;;;;33.25;11.30;;;0.80;99.90;;;;;;6131032;23;20335;-91
2022/12/11 07:44:25;;;;;;;32.13;12.57;;;0.80;99.90;;;;;;6183855;23;20017;-91
2022/12/11 07:46:51;;;;;;;36.88;10.82;;;0.80;99.90;;;;;;6134145;23;20020;-91
2022/12/11 07:49:17;;;;;;;33.33;12.15;;;0.80;99.90;;;;;;6190460;23;20020;-90
2022/12/11 07:51:43;;;;;;;33.78;12.20;;;0.80;99.90;;;;;;6155960;23;20044;-89
2022/12/11 07:54:15;;;;;;;36.42;12.10;;;0.90;99.90;;;;;;6178823;23;20391;-90
2022/12/11 07:56:46;;;;;;;39.83;12.80;;;0.90;99.90;;;;;;6157813;23;20028;-90
2022/12/11 07:59:12;;;;;;;35.28;12.63;;;0.90;99.90;;;;;;6157608;23;20012;-92
2022/12/11 08:01:38;;;;;;;35.80;11.85;;;0.90;99.90;;;;;;6182753;23;20013;-90
2022/12/11 08:04:06;;;;;;;32.55;12.25;;;0.90;99.90;;;;;;6187040;23;20017;-89
2022/12/11 08:06:35;;;;;;;32.40;11.13;;;0.90;99.90;;;;;;6186216;23;20021;-90
2022/12/11 08:09:03;;;;;;;35.05;11.95;;;0.90;99.90;;;;;;6162701;23;20016;-88
2022/12/11 08:11:29;;;;;;;36.67;12.88;;;0.90;99.90;;;;;;6158967;23;20071;-84
2022/12/11 08:13:55;;;;;;;30.05;11.73;;;0.90;99.90;;;;;;6185981;23;20068;-87
2022/12/11 08:16:21;;;;;;;39.20;13.45;;;0.90;99.90;;;;;;6199517;23;19997;-87
2022/12/11 08:18:48;;;;;;;38.55;13.88;;;1.00;99.90;;;;;;6178918;23;20009;-87
2022/12/11 08:21:18;;;;;;;35.92;13.57;;;0.90;99.90;;;;;;6203905;23;20073;-88
2022/12/11 08:23:44;;;;;;;31.83;11.30;;;0.90;99.90;;;;;;6178587;23;20035;-89
2022/12/11 08:26:26;;;;;;;34.38;12.60;;;0.90;99.90;;;;;;6160733;23;20048;-88
2022/12/11 08:28:52;;;;;;;41.13;13.23;;;0.90;99.90;;;;;;6186373;23;20077;-87
2022/12/11 08:31:18;;;;;;;34.00;11.90;;;0.90;99.90;;;;;;6184672;23;20906;-87
2022/12/11 08:33:44;;;;;;;34.80;12.40;;;0.90;99.90;;;;;;6180419;23;20041;-88
2022/12/11 08:36:12;;;;;;;33.95;11.70;;;0.90;99.90;;;;;;6155316;23;20016;-89
2022/12/11 08:38:39;;;;;;;29.20;11.02;;;0.90;99.90;;;;;;6180453;23;20383;-90
2022/12/11 08:41:13;;;;;;;34.00;10.85;;;0.90;99.90;;;;;;6155052;23;20021;-88
2022/12/11 08:43:39;;;;;;;34.33;11.55;;;0.90;99.90;;;;;;6182606;23;20013;-88
2022/12/11 08:46:06;;;;;;;29.27;9.93;;;0.90;99.90;;;;;;6182450;23;20073;-88
2022/12/11 08:48:32;;;;;;;33.38;11.93;;;1.00;99.90;;;;;;6155533;23;20124;-89
2022/12/11 08:51:00;;;;;;;30.00;10.50;;;1.00;99.90;;;;;;6182191;23;20028;-89
2022/12/11 08:53:30;;;;;;;33.25;11.50;;;0.90;99.90;;;;;;6180461;23;20461;-89
2022/12/11 08:56:08;;;;;;;34.90;11.80;;;0.80;99.90;;;;;;6155193;23;20024;-89
2022/12/11 08:58:34;;;;;;;33.25;11.13;;;0.90;99.90;;;;;;6180749;23;20021;-88
2022/12/11 09:01:09;;;;;;;29.30;10.95;;;1.00;99.90;;;;;;6152444;23;20084;-87
2022/12/11 09:03:36;;;;;;;33.47;12.43;;;1.00;99.90;;;;;;6182013;23;20013;-88
2022/12/11 09:06:06;;;;;;;35.05;11.57;;;1.00;99.90;;;;;;6154453;23;20017;-87
2022/12/11 09:08:32;;;;;;;41.63;12.80;;;1.00;99.90;;;;;;6178062;23;20021;-88
2022/12/11 09:11:06;;;;;;;37.58;11.77;;;1.00;99.90;;;;;;6154439;23;20020;-87
2022/12/11 09:13:32;;;;;;;31.02;10.23;;;1.00;99.90;;;;;;6154503;23;20351;-88
2022/12/11 09:15:58;;;;;;;36.25;11.60;;;1.00;99.90;;;;;;6153633;23;20053;-87
2022/12/11 09:18:24;;;;;;;37.03;11.25;;;1.00;99.90;;;;;;6180759;23;20063;-85
2022/12/11 09:20:58;;;;;;;28.02;10.43;;;1.00;99.90;;;;;;6181253;23;20395;-87
2022/12/11 09:23:24;;;;;;;33.17;11.77;;;1.00;99.90;;;;;;6159321;23;20044;-91
2022/12/11 09:25:49;;;;;;;32.05;12.57;;;1.10;99.90;;;;;;6154954;23;20025;-89
2022/12/11 09:28:16;;;;;;;33.03;11.68;;;1.10;99.90;;;;;;6156252;23;20013;-89
2022/12/11 09:30:41;;;;;;;34.00;11.80;;;1.10;99.90;;;;;;6155821;23;20017;-89
2022/12/11 09:33:07;;;;;;;33.63;12.70;;;1.10;99.90;;;;;;6181961;23;20013;-90
2022/12/11 09:35:33;;;;;;;26.52;9.52;;;1.10;99.90;;;;;;6180248;23;20378;-88
2022/12/11 09:37:58;;;;;;;37.28;13.45;;;1.10;99.90;;;;;;6154226;23;20009;-89
2022/12/11 09:40:24;;;;;;;27.08;10.43;;;1.10;99.90;;;;;;6182777;23;20031;-89
2022/12/11 09:43:05;;;;;;;32.85;11.52;;;1.10;99.90;;;;;;6180543;23;20021;-90
2022/12/11 09:45:30;;;;;;;33.13;12.55;;;1.10;99.90;;;;;;6132142;23;20013;-90
2022/12/11 09:47:57;;;;;;;33.53;11.00;;;1.10;99.90;;;;;;6160266;23;20025;-89
2022/12/11 09:50:31;;;;;;;38.13;13.70;;;1.10;99.90;;;;;;6186740;23;20017;-89
2022/12/11 09:53:11;;;;;;;31.88;12.00;;;1.10;99.90;;;;;;6128518;23;20017;-89
2022/12/11 09:56:03;;;;;;;31.30;12.27;;;1.10;99.90;;;;;;6130571;23;20079;-90
2022/12/11 09:58:47;;;;;;;38.17;12.98;;;1.20;99.90;;;;;;6180538;23;20049;-90
2022/12/11 10:01:42;;;;;;;31.73;12.85;;;1.10;99.90;;;;;;6155690;23;20019;-90
2022/12/11 10:04:41;;;;;;;34.88;11.93;;;1.10;99.90;;;;;;6181575;23;20092;-89
2022/12/11 10:07:39;;;;;;;35.25;12.23;;;1.10;99.90;;;;;;6154088;23;20020;-89
2022/12/11 10:10:25;;;;;;;37.92;12.05;;;1.20;99.90;;;;;;6181148;23;20016;-89
2022/12/11 10:13:15;;;;;;;32.95;12.43;;;1.20;99.90;;;;;;6154735;23;20064;-89
2022/12/11 10:16:04;;;;;;;29.40;10.43;;;1.20;99.90;;;;;;6156020;23;20017;-90
2022/12/11 10:18:31;;;;;;;35.80;12.65;;;1.20;99.90;;;;;;6130928;23;20045;-90
2022/12/11 10:21:01;;;;;;;31.92;11.43;;;1.20;99.90;;;;;;6178839;23;20028;-90
2022/12/11 10:23:35;;;;;;;33.25;10.25;;;1.20;99.90;;;;;;6155929;23;20497;-91
2022/12/11 10:26:13;;;;;;;30.25;10.85;;;1.20;99.90;;;;;;6155394;23;20083;-90
2022/12/11 10:28:39;;;;;;;31.63;12.20;;;1.20;99.90;;;;;;6131284;23;20013;-89
2022/12/11 10:31:42;;;;;;;33.33;12.38;;;1.20;99.90;;;;;;6182947;23;20012;-93
2022/12/11 10:34:28;;;;;;;31.83;11.48;;;1.30;99.90;;;;;;6148390;23;20036;-88
2022/12/11 10:36:54;;;;;;;32.33;11.77;;;1.80;99.90;;;;;;6154503;23;20024;-88
2022/12/11 10:39:21;;;;;;;33.17;11.90;;;2.20;99.90;;;;;;6130886;23;20032;-88
2022/12/11 10:41:49;;;;;;;27.90;11.20;;;2.50;99.90;;;;;;6179883;23;20323;-91
2022/12/11 10:44:19;;;;;;;31.73;11.60;;;2.80;99.90;;;;;;6155695;23;20135;-88
2022/12/11 10:46:47;;;;;;;32.95;11.00;;;3.00;99.90;;;;;;6156502;23;20025;-89
2022/12/11 10:49:22;;;;;;;31.75;11.95;;;3.20;99.90;;;;;;6153987;23;20017;-87
2022/12/11 10:51:50;;;;;;;32.30;11.45;;;3.30;99.90;;;;;;6152795;23;20052;-87
2022/12/11 10:54:37;;;;;;;28.23;10.15;;;3.40;99.90;;;;;;6181049;23;20017;-87
2022/12/11 10:57:05;;;;;;;32.05;11.07;;;3.50;99.90;;;;;;6153962;23;20396;-87
2022/12/11 10:59:48;;;;;;;28.17;10.48;;;3.50;99.90;;;;;;6154417;23;20334;-86
2022/12/11 11:02:29;;;;;;;28.17;10.55;;;3.70;99.90;;;;;;6152914;23;20320;-87
2022/12/11 11:04:58;;;;;;;26.70;10.85;;;3.70;99.90;;;;;;6176955;23;20118;-86
2022/12/11 11:07:25;;;;;;;23.17;10.02;;;3.80;99.90;;;;;;6180771;23;20062;-86
2022/12/11 11:10:05;;;;;;;26.02;9.50;;;3.80;99.90;;;;;;6152738;23;20408;-87
2022/12/11 11:12:39;;;;;;;25.45;9.82;;;3.80;99.90;;;;;;6179651;23;20017;-87
2022/12/11 11:15:18;;;;;;;25.25;10.02;;;3.90;99.90;;;;;;6179531;23;20021;-86
2022/12/11 11:17:59;;;;;;;26.13;10.40;;;3.80;99.90;;;;;;6153952;23;20024;-87
2022/12/11 11:20:28;;;;;;;25.13;9.57;;;3.90;99.90;;;;;;6130540;23;20017;-91
2022/12/11 11:22:57;;;;;;;27.10;9.63;;;3.90;99.90;;;;;;6155761;23;20021;-92
2022/12/11 11:25:30;;;;;;;27.05;9.20;;;3.90;99.90;;;;;;6181720;23;20024;-86
2022/12/11 11:28:19;;;;;;;24.98;9.93;;;3.90;99.90;;;;;;6152883;23;20021;-86
2022/12/11 11:30:55;;;;;;;25.58;10.55;;;3.90;99.90;;;;;;6182092;23;20013;-87
2022/12/11 11:33:22;;;;;;;23.42;9.18;;;3.90;99.90;;;;;;6181850;23;20005;-87
2022/12/11 11:35:57;;;;;;;26.30;11.15;;;3.80;99.90;;;;;;6155456;23;20020;-88
2022/12/11 11:38:36;;;;;;;21.80;8.43;;;3.90;99.90;;;;;;6182900;23;20360;-90
2022/12/11 11:41:23;;;;;;;22.65;8.68;;;3.90;99.90;;;;;;6158696;23;20009;-88
2022/12/11 11:43:59;;;;;;;24.77;10.30;;;3.90;99.90;;;;;;6157557;23;20021;-89
2022/12/11 11:46:32;;;;;;;28.38;11.93;;;3.90;99.90;;;;;;6132078;23;20132;-88
2022/12/11 11:49:19;;;;;;;26.92;11.77;;;3.90;99.90;;;;;;6159885;23;20549;-90
2022/12/11 11:52:03;;;;;;;24.70;9.93;;;3.90;99.90;;;;;;6182201;23;20032;-87
2022/12/11 11:54:53;;;;;;;25.23;9.73;;;3.90;99.90;;;;;;6181671;23;20013;-86
2022/12/11 11:57:55;;;;;;;26.20;10.93;;;3.90;99.90;;;;;;6156996;23;20017;-86
2022/12/11 12:00:27;;;;;;;22.48;9.45;;;3.90;99.90;;;;;;6155001;23;20103;-88
2022/12/11 12:03:12;;;;;;;23.63;8.93;;;3.90;99.90;;;;;;6154755;23;20031;-86
2022/12/11 12:05:51;;;;;;;26.13;9.32;;;3.80;99.90;;;;;;6154989;23;20009;-87
2022/12/11 12:08:40;;;;;;;22.52;10.05;;;3.80;99.90;;;;;;6155424;23;20009;-88
2022/12/11 12:11:36;;;;;;;26.02;10.02;;;3.80;99.90;;;;;;6181008;23;20013;-88
2022/12/11 12:14:23;;;;;;;29.88;10.98;;;3.80;99.90;;;;;;6154107;23;20017;-87
2022/12/11 12:17:07;;;;;;;28.10;11.07;;;3.80;99.90;;;;;;6181201;23;20336;-86
2022/12/11 12:20:03;;;;;;;28.27;10.82;;;3.80;99.90;;;;;;6182591;23;20335;-86
2022/12/11 12:22:59;;;;;;;25.65;11.02;;;3.80;99.90;;;;;;6181198;23;20021;-87
2022/12/11 12:25:35;;;;;;;28.95;10.38;;;3.80;99.90;;;;;;6184127;23;20016;-90
2022/12/11 12:28:22;;;;;;;28.75;11.00;;;3.70;99.90;;;;;;6200645;23;20013;-87
2022/12/11 12:31:26;;;;;;;22.40;9.68;;;3.70;99.90;;;;;;6204764;23;20032;-85
2022/12/11 12:34:41;;;;;;;23.73;10.77;;;3.70;99.90;;;;;;6203838;23;20021;-86
2022/12/11 12:37:20;;;;;;;25.90;10.82;;;3.70;99.90;;;;;;6084059;23;20009;-86
2022/12/11 12:40:09;;;;;;;28.33;10.65;;;3.60;99.90;;;;;;6066313;23;20030;-86
2022/12/11 12:42:55;;;;;;;27.88;10.93;;;3.60;99.90;;;;;;6051903;23;20139;-86
2022/12/11 12:45:38;;;;;;;28.25;11.57;;;3.50;99.90;;;;;;6042061;23;20018;-85
2022/12/11 12:48:07;;;;;;;27.52;10.65;;;3.60;99.90;;;;;;6039330;23;20023;-85
2022/12/11 12:50:41;;;;;;;24.90;9.85;;;3.60;99.90;;;;;;6038457;23;20026;-86
2022/12/11 12:53:16;;;;;;;27.48;11.07;;;3.50;99.90;;;;;;6037064;23;20631;-85
2022/12/11 12:55:44;;;;;;;28.25;11.40;;;3.60;99.90;;;;;;6037594;23;20019;-85
2022/12/11 12:58:39;;;;;;;27.27;10.27;;;3.60;99.90;;;;;;6037020;23;20019;-85
2022/12/11 13:01:20;;;;;;;27.90;10.20;;;3.60;99.90;;;;;;6036351;23;20225;-85
2022/12/11 13:04:04;;;;;;;30.00;12.13;;;3.50;99.90;;;;;;6036973;23;20051;-85
2022/12/11 13:06:33;;;;;;;24.65;10.43;;;3.50;99.90;;;;;;6061188;23;20015;-85
2022/12/11 13:09:20;;;;;;;29.67;12.35;;;3.50;99.90;;;;;;6035625;23;20019;-85